createdAt,value
2023-05-20T00:01:26.603Z,11.70
2023-05-20T00:03:55.137Z,11.70
2023-05-20T00:06:23.613Z,11.70
2023-05-20T00:08:53.316Z,11.70
2023-05-20T00:11:21.673Z,11.60
2023-05-20T00:13:50.070Z,11.60
2023-05-20T00:16:18.451Z,11.60
2023-05-20T00:18:46.939Z,11.60
2023-05-20T00:21:15.366Z,11.50
2023-05-20T00:23:44.260Z,11.60
2023-05-20T00:26:14.032Z,11.50
2023-05-20T00:28:42.355Z,11.50
2023-05-20T00:31:10.727Z,11.40
2023-05-20T00:33:39.045Z,11.40
2023-05-20T00:36:08.117Z,11.40
2023-05-20T00:38:36.550Z,11.40
2023-05-20T00:41:04.897Z,11.30
2023-05-20T00:43:34.595Z,11.20
2023-05-20T00:46:04.127Z,11.20
2023-05-20T00:48:38.854Z,11.10
2023-05-20T00:51:07.741Z,11.00
2023-05-20T00:53:36.195Z,11.00
2023-05-20T00:56:05.005Z,11.00
2023-05-20T00:58:36.689Z,11.00
2023-05-20T01:01:05.345Z,11.00
2023-05-20T01:03:34.197Z,11.00
2023-05-20T01:06:03.327Z,11.00
2023-05-20T01:08:32.306Z,10.90
2023-05-20T01:11:05.048Z,10.80
2023-05-20T01:13:38.069Z,10.70
2023-05-20T01:16:07.185Z,10.60
2023-05-20T01:18:35.619Z,10.60
2023-05-20T01:21:04.744Z,10.60
2023-05-20T01:23:38.892Z,10.50
2023-05-20T01:26:07.465Z,10.50
2023-05-20T01:28:36.012Z,10.50
2023-05-20T01:31:05.555Z,10.50
2023-05-20T01:33:34.594Z,10.50
2023-05-20T01:36:03.008Z,10.50
2023-05-20T01:38:31.380Z,10.40
2023-05-20T01:41:01.184Z,10.40
2023-05-20T01:43:29.572Z,10.40
2023-05-20T01:45:58.103Z,10.40
2023-05-20T01:48:26.466Z,10.40
2023-05-20T01:50:54.868Z,10.40
2023-05-20T01:53:23.207Z,10.50
2023-05-20T01:55:51.632Z,10.50
2023-05-20T01:58:21.373Z,10.50
2023-05-20T02:00:52.150Z,10.50
2023-05-20T02:03:20.628Z,10.60
2023-05-20T02:05:49.120Z,10.70
2023-05-20T02:08:17.578Z,10.70
2023-05-20T02:10:45.955Z,10.70
2023-05-20T02:13:14.326Z,10.80
2023-05-20T02:15:44.902Z,10.80
2023-05-20T02:18:14.126Z,10.90
2023-05-20T02:20:42.744Z,10.90
2023-05-20T02:23:11.182Z,11.00
2023-05-20T02:25:39.564Z,11.00
2023-05-20T02:28:10.643Z,11.00
2023-05-20T02:30:39.229Z,11.00
2023-05-20T02:33:09.845Z,11.00
2023-05-20T02:35:38.497Z,11.00
2023-05-20T02:38:06.938Z,10.90
2023-05-20T02:40:35.339Z,11.00
2023-05-20T02:43:04.108Z,11.00
2023-05-20T02:45:32.494Z,11.00
2023-05-20T02:48:01.475Z,11.10
2023-05-20T02:50:31.332Z,11.20
2023-05-20T02:52:59.741Z,11.20
2023-05-20T02:55:28.368Z,11.20
2023-05-20T02:57:56.778Z,11.20
2023-05-20T03:00:25.390Z,11.20
2023-05-20T03:02:53.857Z,11.30
2023-05-20T03:05:22.719Z,11.30
2023-05-20T03:07:52.484Z,11.30
2023-05-20T03:10:21.101Z,11.30
2023-05-20T03:12:49.596Z,11.40
2023-05-20T03:15:18.105Z,11.40
2023-05-20T03:17:46.532Z,11.40
2023-05-20T03:20:16.715Z,11.40
2023-05-20T03:22:45.039Z,11.50
2023-05-20T03:25:15.207Z,11.50
2023-05-20T03:27:44.780Z,11.60
2023-05-20T03:30:14.235Z,11.60
2023-05-20T03:32:42.664Z,11.70
2023-05-20T03:35:11.334Z,11.70
2023-05-20T03:37:39.936Z,11.80
2023-05-20T03:40:10.460Z,11.80
2023-05-20T03:42:40.574Z,11.80
2023-05-20T03:45:10.437Z,11.80
2023-05-20T03:47:38.847Z,11.80
2023-05-20T03:50:08.861Z,11.90
2023-05-20T03:52:37.199Z,11.90
2023-05-20T03:55:06.446Z,11.90
2023-05-20T03:57:36.542Z,11.90
2023-05-20T04:00:11.324Z,11.90
2023-05-20T04:02:39.682Z,12.00
2023-05-20T04:05:10.355Z,11.90
2023-05-20T04:07:38.740Z,11.90
2023-05-20T04:10:08.765Z,11.90
2023-05-20T04:12:38.353Z,12.00
2023-05-20T04:15:10.398Z,11.90
2023-05-20T04:17:40.466Z,11.90
2023-05-20T04:20:10.224Z,11.90
2023-05-20T04:22:39.529Z,11.90
2023-05-20T04:25:09.874Z,11.90
2023-05-20T04:27:39.702Z,12.00
2023-05-20T04:30:10.575Z,12.00
2023-05-20T04:32:39.101Z,12.00
2023-05-20T04:35:11.898Z,12.00
2023-05-20T04:37:42.412Z,12.00
2023-05-20T04:40:13.661Z,12.10
2023-05-20T04:42:43.668Z,12.10
2023-05-20T04:45:13.877Z,12.10
2023-05-20T04:47:42.574Z,12.10
2023-05-20T04:50:11.869Z,12.10
2023-05-20T04:52:40.298Z,12.10
2023-05-20T04:55:10.835Z,12.10
2023-05-20T04:57:42.042Z,12.20
2023-05-20T05:00:13.839Z,12.10
2023-05-20T05:02:42.323Z,12.10
2023-05-20T05:05:11.209Z,12.10
2023-05-20T05:07:39.588Z,12.10
2023-05-20T05:10:09.334Z,12.10
2023-05-20T05:12:37.746Z,12.20
2023-05-20T05:15:07.807Z,12.20
2023-05-20T05:17:37.622Z,12.20
2023-05-20T05:20:08.620Z,12.20
2023-05-20T05:22:39.730Z,12.30
2023-05-20T05:25:09.476Z,12.30
2023-05-20T05:27:37.878Z,12.30
2023-05-20T05:30:08.003Z,12.30
2023-05-20T05:32:38.715Z,12.30
2023-05-20T05:35:08.476Z,12.30
2023-05-20T05:37:36.949Z,12.30
2023-05-20T05:40:06.307Z,12.40
2023-05-20T05:42:34.748Z,12.40
2023-05-20T05:45:03.254Z,12.50
2023-05-20T05:47:32.801Z,12.60
2023-05-20T05:50:03.051Z,12.60
2023-05-20T05:52:31.437Z,12.70
2023-05-20T05:55:00.028Z,12.70
2023-05-20T05:57:28.530Z,12.80
2023-05-20T05:59:56.906Z,12.90
2023-05-20T06:02:25.485Z,12.90
2023-05-20T06:04:53.817Z,13.00
2023-05-20T06:07:25.203Z,13.00
2023-05-20T06:09:53.592Z,13.10
2023-05-20T06:12:22.016Z,13.20
2023-05-20T06:14:50.524Z,13.30
2023-05-20T06:17:18.853Z,13.30
2023-05-20T06:19:47.306Z,13.30
2023-05-20T06:22:15.775Z,13.30
2023-05-20T06:24:45.484Z,13.30
2023-05-20T06:27:13.968Z,13.30
2023-05-20T06:29:43.757Z,13.30
2023-05-20T06:32:12.383Z,13.30
2023-05-20T06:34:41.290Z,13.30
2023-05-20T06:37:09.668Z,13.30
2023-05-20T06:39:38.145Z,13.40
2023-05-20T06:42:08.199Z,13.50
2023-05-20T06:44:36.538Z,13.50
2023-05-20T06:47:05.097Z,13.60
2023-05-20T06:49:33.520Z,13.60
2023-05-20T06:52:01.835Z,13.70
2023-05-20T06:54:30.166Z,13.70
2023-05-20T06:56:58.557Z,13.80
2023-05-20T06:59:28.298Z,13.90
2023-05-20T07:01:56.619Z,14.00
2023-05-20T07:04:27.541Z,14.00
2023-05-20T07:06:55.965Z,14.10
2023-05-20T07:09:24.436Z,14.10
2023-05-20T07:11:52.803Z,14.10
2023-05-20T07:14:21.243Z,14.20
2023-05-20T07:16:51.347Z,14.20
2023-05-20T07:19:19.817Z,14.20
2023-05-20T07:21:49.728Z,14.20
2023-05-20T07:24:18.142Z,14.20
2023-05-20T07:26:46.574Z,14.30
2023-05-20T07:29:15.176Z,14.30
2023-05-20T07:31:43.680Z,14.30
2023-05-20T07:34:13.534Z,14.40
2023-05-20T07:36:41.900Z,14.50
2023-05-20T07:39:13.454Z,14.50
2023-05-20T07:41:43.471Z,14.60
2023-05-20T07:44:13.093Z,14.60
2023-05-20T07:46:41.853Z,14.70
2023-05-20T07:49:10.501Z,14.90
2023-05-20T07:51:40.225Z,15.10
2023-05-20T07:54:09.078Z,15.20
2023-05-20T07:56:37.376Z,15.40
2023-05-20T07:59:05.846Z,15.50
2023-05-20T08:01:34.743Z,15.70
2023-05-20T08:04:03.921Z,16.00
2023-05-20T08:06:33.162Z,16.10
2023-05-20T08:09:02.986Z,16.00
2023-05-20T08:11:31.342Z,16.00
2023-05-20T08:13:59.618Z,16.10
2023-05-20T08:16:28.326Z,16.20
2023-05-20T08:18:56.844Z,16.20
2023-05-20T08:21:25.176Z,16.10
2023-05-20T08:23:53.565Z,16.20
2023-05-20T08:26:23.398Z,16.20
2023-05-20T08:28:51.787Z,16.30
2023-05-20T08:31:20.226Z,16.30
2023-05-20T08:33:49.051Z,16.30
2023-05-20T08:36:19.435Z,16.30
2023-05-20T08:38:47.796Z,16.30
2023-05-20T08:41:16.151Z,16.30
2023-05-20T08:43:46.037Z,16.30
2023-05-20T08:46:16.187Z,16.40
2023-05-20T08:48:45.899Z,16.50
2023-05-20T08:51:14.313Z,16.50
2023-05-20T08:53:42.649Z,16.40
2023-05-20T08:56:11.093Z,16.50
2023-05-20T08:58:39.412Z,16.50
2023-05-20T09:01:09.535Z,16.40
2023-05-20T09:03:37.830Z,16.50
2023-05-20T09:06:06.828Z,16.60
2023-05-20T09:08:35.333Z,16.60
2023-05-20T09:11:03.749Z,16.50
2023-05-20T09:13:32.669Z,16.50
2023-05-20T09:16:02.039Z,16.50
2023-05-20T09:18:31.880Z,16.60
2023-05-20T09:21:05.727Z,16.60
2023-05-20T09:23:34.058Z,16.80
2023-05-20T09:26:03.383Z,16.90
2023-05-20T09:28:31.708Z,17.10
2023-05-20T09:31:00.251Z,17.20
2023-05-20T09:33:32.009Z,17.20
2023-05-20T09:36:08.717Z,17.20
2023-05-20T09:38:39.833Z,17.20
2023-05-20T09:41:11.913Z,17.30
2023-05-20T09:43:41.020Z,17.40
2023-05-20T09:46:09.492Z,17.40
2023-05-20T09:48:39.796Z,17.50
2023-05-20T09:51:08.385Z,17.50
2023-05-20T09:53:37.043Z,17.40
2023-05-20T09:56:05.942Z,17.40
2023-05-20T09:58:35.179Z,17.20
2023-05-20T10:01:03.540Z,17.00
2023-05-20T10:03:32.151Z,17.00
2023-05-20T10:06:31.868Z,17.10
2023-05-20T10:09:29.781Z,17.30
2023-05-20T10:12:15.619Z,17.40
2023-05-20T10:14:51.049Z,17.50
2023-05-20T10:17:26.564Z,17.70
2023-05-20T10:19:59.709Z,17.80
2023-05-20T10:22:31.525Z,17.90
2023-05-20T10:25:01.277Z,18.00
2023-05-20T10:27:29.598Z,18.20
2023-05-20T10:29:58.406Z,18.40
2023-05-20T10:32:28.073Z,18.60
2023-05-20T10:35:00.898Z,18.60
2023-05-20T10:37:31.656Z,18.70
2023-05-20T10:40:11.138Z,18.70
2023-05-20T10:42:39.774Z,18.50
2023-05-20T10:45:10.469Z,18.60
2023-05-20T10:47:42.952Z,18.60
2023-05-20T10:50:27.599Z,18.60
2023-05-20T10:53:07.034Z,18.50
2023-05-20T10:55:38.762Z,18.60
2023-05-20T10:58:07.546Z,18.70
2023-05-20T11:00:37.416Z,18.70
2023-05-20T11:03:06.870Z,18.70
2023-05-20T11:05:35.368Z,18.90
2023-05-20T11:08:13.629Z,18.80
2023-05-20T11:10:48.775Z,18.80
2023-05-20T11:13:17.206Z,18.90
2023-05-20T11:15:45.677Z,19.10
2023-05-20T11:18:17.041Z,19.30
2023-05-20T11:20:47.926Z,19.40
2023-05-20T11:23:18.171Z,19.60
2023-05-20T11:25:46.539Z,19.70
2023-05-20T11:28:15.157Z,19.60
2023-05-20T11:30:44.012Z,19.70
2023-05-20T11:33:14.165Z,19.70
2023-05-20T11:35:46.656Z,19.70
2023-05-20T11:38:15.070Z,19.70
2023-05-20T11:40:50.969Z,19.70
2023-05-20T11:43:19.882Z,19.50
2023-05-20T11:45:49.693Z,19.50
2023-05-20T11:48:18.086Z,19.80
2023-05-20T11:50:48.255Z,20.00
2023-05-20T11:53:17.860Z,20.20
2023-05-20T11:55:48.370Z,20.40
2023-05-20T11:58:21.280Z,20.30
2023-05-20T12:00:54.716Z,20.40
2023-05-20T12:03:26.070Z,20.40
2023-05-20T12:05:54.641Z,20.30
2023-05-20T12:08:23.726Z,19.80
2023-05-20T12:10:53.534Z,19.50
2023-05-20T12:13:23.341Z,19.30
2023-05-20T12:15:51.719Z,19.30
2023-05-20T12:18:20.126Z,19.30
2023-05-20T12:20:48.409Z,19.30
2023-05-20T12:23:16.833Z,19.40
2023-05-20T12:25:45.731Z,19.60
2023-05-20T12:28:16.214Z,19.90
2023-05-20T12:30:44.594Z,20.30
2023-05-20T12:33:12.953Z,20.50
2023-05-20T12:35:42.178Z,20.60
2023-05-20T12:38:11.210Z,20.60
2023-05-20T12:40:39.576Z,20.40
2023-05-20T12:46:02.229Z,19.90
2023-05-20T12:48:30.610Z,20.00
2023-05-20T12:50:58.957Z,20.20
2023-05-20T12:53:27.353Z,20.50
2023-05-20T12:55:55.717Z,20.70
2023-05-20T12:58:24.129Z,20.70
2023-05-20T13:00:52.575Z,20.50
2023-05-20T13:03:22.436Z,20.30
2023-05-20T13:05:51.199Z,20.20
2023-05-20T13:08:19.604Z,20.20
2023-05-20T13:10:47.955Z,20.40
2023-05-20T13:13:21.373Z,20.60
2023-05-20T13:15:50.395Z,20.40
2023-05-20T13:18:19.505Z,20.30
2023-05-20T13:20:49.741Z,20.00
2023-05-20T13:23:18.092Z,20.10
2023-05-20T13:25:46.528Z,20.10
2023-05-20T13:28:18.862Z,20.10
2023-05-20T13:30:47.321Z,20.30
2023-05-20T13:33:15.780Z,20.40
2023-05-20T13:35:44.699Z,20.40
2023-05-20T13:38:14.416Z,20.40
2023-05-20T13:40:42.871Z,20.40
2023-05-20T13:43:11.210Z,20.30
2023-05-20T13:45:39.513Z,20.30
2023-05-20T13:48:08.226Z,20.20
2023-05-20T13:50:36.687Z,20.10
2023-05-20T13:53:05.144Z,20.00
2023-05-20T13:55:34.935Z,20.00
2023-05-20T13:58:03.294Z,20.10
2023-05-20T14:00:31.785Z,20.40
2023-05-20T14:03:01.247Z,20.50
2023-05-20T14:05:29.792Z,20.60
2023-05-20T14:07:58.236Z,20.80
2023-05-20T14:10:26.661Z,20.70
2023-05-20T14:12:58.851Z,20.50
2023-05-20T14:15:30.484Z,20.50
2023-05-20T14:17:58.811Z,20.60
2023-05-20T14:20:27.240Z,20.70
2023-05-20T14:22:55.810Z,20.80
2023-05-20T14:25:24.161Z,20.60
2023-05-20T14:27:52.465Z,20.50
2023-05-20T14:30:22.164Z,20.60
2023-05-20T14:32:50.534Z,20.70
2023-05-20T14:35:19.217Z,20.80
2023-05-20T14:37:47.686Z,21.00
2023-05-20T14:40:16.598Z,21.00
2023-05-20T14:42:44.927Z,21.00
2023-05-20T14:45:13.372Z,20.90
2023-05-20T14:47:43.134Z,21.00
2023-05-20T14:50:11.946Z,21.10
2023-05-20T14:52:40.547Z,21.10
2023-05-20T14:55:09.255Z,21.20
2023-05-20T14:57:37.615Z,21.30
2023-05-20T15:00:07.139Z,21.40
2023-05-20T15:02:35.705Z,21.50
2023-05-20T15:05:06.273Z,21.50
2023-05-20T15:07:34.711Z,21.50
2023-05-20T15:10:03.100Z,21.50
2023-05-20T15:12:31.426Z,21.50
2023-05-20T15:14:59.807Z,21.50
2023-05-20T15:17:28.145Z,21.50
2023-05-20T15:19:56.516Z,21.50
2023-05-20T15:22:26.214Z,21.50
2023-05-20T15:24:54.589Z,21.60
2023-05-20T15:27:22.937Z,21.60
2023-05-20T15:29:51.340Z,21.60
2023-05-20T15:32:20.093Z,21.50
2023-05-20T15:34:48.610Z,21.50
2023-05-20T15:37:17.163Z,21.40
2023-05-20T15:39:46.952Z,21.40
2023-05-20T15:42:18.236Z,21.50
2023-05-20T15:44:46.803Z,21.50
2023-05-20T15:47:15.209Z,21.50
2023-05-20T15:49:43.567Z,21.50
2023-05-20T15:52:12.053Z,21.50
2023-05-20T15:54:40.523Z,21.50
2023-05-20T15:57:10.247Z,21.50
2023-05-20T15:59:38.622Z,21.50
2023-05-20T16:02:08.822Z,21.50
2023-05-20T16:04:37.156Z,21.40
2023-05-20T16:07:06.017Z,21.40
2023-05-20T16:09:34.365Z,21.30
2023-05-20T16:12:03.318Z,21.30
2023-05-20T16:14:33.196Z,21.30
2023-05-20T16:17:01.527Z,21.20
2023-05-20T16:19:29.962Z,21.20
2023-05-20T16:21:58.426Z,21.10
2023-05-20T16:24:26.957Z,21.10
2023-05-20T16:26:55.346Z,21.20
2023-05-20T16:29:23.731Z,21.20
2023-05-20T16:31:53.627Z,21.30
2023-05-20T16:34:22.108Z,21.30
2023-05-20T16:36:50.464Z,21.30
2023-05-20T16:39:20.464Z,21.40
2023-05-20T16:41:48.802Z,21.50
2023-05-20T16:44:17.181Z,21.50
2023-05-20T16:46:45.629Z,21.60
2023-05-20T16:49:15.534Z,21.60
2023-05-20T16:51:44.107Z,21.60
2023-05-20T16:54:12.905Z,21.50
2023-05-20T16:56:41.343Z,21.50
2023-05-20T16:59:09.722Z,21.40
2023-05-20T17:01:39.095Z,21.40
2023-05-20T17:04:07.673Z,21.30
2023-05-20T17:06:39.813Z,21.20
2023-05-20T17:09:08.813Z,21.20
2023-05-20T17:11:37.199Z,21.10
2023-05-20T17:14:05.693Z,21.00
2023-05-20T17:16:34.086Z,21.00
2023-05-20T17:19:02.536Z,21.00
2023-05-20T17:21:31.157Z,21.00
2023-05-20T17:24:00.932Z,20.90
2023-05-20T17:26:29.264Z,20.90
2023-05-20T17:28:57.644Z,20.90
2023-05-20T17:31:26.016Z,20.80
2023-05-20T17:33:54.521Z,20.80
2023-05-20T17:36:23.094Z,20.70
2023-05-20T17:38:51.518Z,20.70
2023-05-20T17:41:21.892Z,20.70
2023-05-20T17:43:50.337Z,20.70
2023-05-20T17:46:18.692Z,20.70
2023-05-20T17:48:47.056Z,20.80
2023-05-20T17:51:15.542Z,20.80
2023-05-20T17:53:43.976Z,20.80
2023-05-20T17:56:12.308Z,20.80
2023-05-20T17:58:42.118Z,20.80
2023-05-20T18:01:16.466Z,20.70
2023-05-20T18:03:45.001Z,20.70
2023-05-20T18:06:13.577Z,20.60
2023-05-20T18:08:42.488Z,20.60
2023-05-20T18:11:10.945Z,20.50
2023-05-20T18:13:39.396Z,20.40
2023-05-20T18:16:10.469Z,20.40
2023-05-20T18:18:38.874Z,20.30
2023-05-20T18:21:07.866Z,20.20
2023-05-20T18:23:36.284Z,20.20
2023-05-20T18:26:07.032Z,20.10
2023-05-20T18:28:35.551Z,20.00
2023-05-20T18:31:03.901Z,19.90
2023-05-20T18:33:33.624Z,19.90
2023-05-20T18:36:01.926Z,19.80
2023-05-20T18:38:30.726Z,19.70
2023-05-20T18:40:59.033Z,19.70
2023-05-20T18:43:27.429Z,19.60
2023-05-20T18:45:55.921Z,19.50
2023-05-20T18:48:27.000Z,19.40
2023-05-20T18:50:58.566Z,19.40
2023-05-20T18:53:26.963Z,19.30
2023-05-20T18:55:56.063Z,19.20
2023-05-20T18:58:24.418Z,19.20
2023-05-20T19:00:52.757Z,19.10
2023-05-20T19:03:21.281Z,19.00
2023-05-20T19:05:49.741Z,18.90
2023-05-20T19:08:19.561Z,18.90
2023-05-20T19:10:47.870Z,18.80
2023-05-20T19:13:16.259Z,18.80
2023-05-20T19:15:44.723Z,18.80
2023-05-20T19:18:14.180Z,18.70
2023-05-20T19:20:42.469Z,18.60
2023-05-20T19:23:10.810Z,18.60
2023-05-20T19:25:40.586Z,18.50
2023-05-20T19:28:08.971Z,18.50
2023-05-20T19:30:37.438Z,18.50
2023-05-20T19:33:06.146Z,18.40
2023-05-20T19:35:34.851Z,18.30
2023-05-20T19:38:04.961Z,18.30
2023-05-20T19:40:33.465Z,18.30
2023-05-20T19:43:03.290Z,18.20
2023-05-20T19:45:32.231Z,18.20
2023-05-20T19:48:00.725Z,18.10
2023-05-20T19:50:29.068Z,18.10
2023-05-20T19:52:57.392Z,18.00
2023-05-20T19:55:25.854Z,18.00
2023-05-20T19:57:54.225Z,18.00
2023-05-20T20:00:24.240Z,18.00
2023-05-20T20:02:52.707Z,17.90
2023-05-20T20:05:23.643Z,17.90
2023-05-20T20:07:52.345Z,17.80
2023-05-20T20:10:20.744Z,17.80
2023-05-20T20:12:49.796Z,17.70
2023-05-20T20:15:20.348Z,17.70
2023-05-20T20:17:52.323Z,17.60
2023-05-20T20:20:21.013Z,17.60
2023-05-20T20:22:49.457Z,17.60
2023-05-20T20:25:18.605Z,17.50
2023-05-20T20:27:48.388Z,17.50
2023-05-20T20:30:16.813Z,17.50
2023-05-20T20:32:48.131Z,17.50
2023-05-20T20:35:18.031Z,17.40
2023-05-20T20:37:46.842Z,17.30
2023-05-20T20:40:15.278Z,17.30
2023-05-20T20:42:45.214Z,17.30
2023-05-20T20:45:15.100Z,17.20
2023-05-20T20:47:43.984Z,17.20
2023-05-20T20:50:12.623Z,17.10
2023-05-20T20:52:42.719Z,17.10
2023-05-20T20:55:11.844Z,17.10
2023-05-20T20:57:41.907Z,17.00
2023-05-20T21:00:17.127Z,17.00
2023-05-20T21:02:45.581Z,16.90
2023-05-20T21:05:14.487Z,16.90
2023-05-20T21:07:45.988Z,16.80
2023-05-20T21:10:14.439Z,16.80
2023-05-20T21:12:42.843Z,16.80
2023-05-20T21:15:14.990Z,16.70
2023-05-20T21:17:43.509Z,16.70
2023-05-20T21:20:13.415Z,16.70
2023-05-20T21:22:43.178Z,16.60
2023-05-20T21:25:11.628Z,16.60
2023-05-20T21:27:41.297Z,16.60
2023-05-20T21:30:11.168Z,16.60
2023-05-20T21:32:39.780Z,16.50
2023-05-20T21:35:09.913Z,16.50
2023-05-20T21:37:38.290Z,16.50
2023-05-20T21:40:09.999Z,16.40
2023-05-20T21:42:38.468Z,16.40
2023-05-20T21:45:08.919Z,16.40
2023-05-20T21:47:37.283Z,16.30
2023-05-20T21:50:07.377Z,16.30
2023-05-20T21:52:35.807Z,16.20
2023-05-20T21:55:04.149Z,16.20
2023-05-20T21:57:33.989Z,16.20
2023-05-20T22:00:02.398Z,16.20
2023-05-20T22:02:31.248Z,16.10
2023-05-20T22:05:00.357Z,16.10
2023-05-20T22:07:28.766Z,16.10
2023-05-20T22:09:57.541Z,16.00
2023-05-20T22:12:25.845Z,16.00
2023-05-20T22:14:56.158Z,16.00
2023-05-20T22:17:24.986Z,16.00
2023-05-20T22:19:54.121Z,16.00
2023-05-20T22:22:22.520Z,15.90
2023-05-20T22:24:50.919Z,15.90
2023-05-20T22:27:19.315Z,15.90
2023-05-20T22:29:47.698Z,15.90
2023-05-20T22:32:17.570Z,15.80
2023-05-20T22:34:46.485Z,15.80
2023-05-20T22:37:15.955Z,15.80
2023-05-20T22:39:44.247Z,15.80
2023-05-20T22:42:12.817Z,15.80
2023-05-20T22:44:41.507Z,15.80
2023-05-20T22:47:13.468Z,15.80
2023-05-20T22:49:43.150Z,15.80
2023-05-20T22:52:11.727Z,15.80
2023-05-20T22:54:40.061Z,15.80
2023-05-20T22:57:08.503Z,15.80
2023-05-20T22:59:36.821Z,15.80
2023-05-20T23:02:06.300Z,15.80
2023-05-20T23:04:34.994Z,15.80
2023-05-20T23:07:05.454Z,15.80
2023-05-20T23:09:33.799Z,15.70
2023-05-20T23:12:02.160Z,15.70
2023-05-20T23:14:30.491Z,15.70
2023-05-20T23:16:58.865Z,15.70
2023-05-20T23:19:27.444Z,15.70
2023-05-20T23:21:55.868Z,15.70
2023-05-20T23:24:25.545Z,15.70
2023-05-20T23:26:54.601Z,15.60
2023-05-20T23:29:23.167Z,15.60
2023-05-20T23:31:51.645Z,15.60
2023-05-20T23:34:20.102Z,15.50
2023-05-20T23:36:49.959Z,15.50
2023-05-20T23:39:18.614Z,15.50
2023-05-20T23:41:48.482Z,15.50
2023-05-20T23:44:16.838Z,15.40
2023-05-20T23:46:45.225Z,15.40
2023-05-20T23:49:13.976Z,15.30
2023-05-20T23:51:42.313Z,15.30
2023-05-20T23:54:10.646Z,15.30
2023-05-20T23:56:39.130Z,15.30
2023-05-20T23:59:08.864Z,15.20
